Time,TemperatureF,DewpointF,PressureIn,WindDirection,WindDirectionDegrees,WindSpeedMPH,WindSpeedGustMPH,Humidity,HourlyPrecipIn,Conditions,Clouds,dailyrainin,SolarRadiationWatts/m^2,SoftwareType,DateUTC
2013-12-12 00:02:00,55.0,19.0,-100.00,NNW,339,5.0,17.0,24,0.00,,,0.00,0.000000,,2013-12-12 08:02:00,
2013-12-12 00:11:00,55.0,19.0,-100.00,NNW,339,5.0,17.0,24,0.00,,,0.00,0.000000,,2013-12-12 08:11:00,
2013-12-12 00:22:00,55.0,19.0,-100.00,NNW,339,5.0,17.0,24,0.00,,,0.00,0.000000,,2013-12-12 08:22:00,
2013-12-12 00:52:00,55.0,17.0,-100.00,NNW,329,13.0,17.0,22,0.00,,,0.00,0.000000,,2013-12-12 08:52:00,
2013-12-12 01:02:00,55.0,17.0,-100.00,NNW,329,13.0,17.0,22,0.00,,,0.00,0.000000,,2013-12-12 09:02:00,
2013-12-12 01:12:00,55.0,17.0,-100.00,NNW,329,13.0,17.0,22,0.00,,,0.00,0.000000,,2013-12-12 09:12:00,
2013-12-12 01:21:00,55.0,17.0,-100.00,NNW,329,13.0,17.0,22,0.00,,,0.00,0.000000,,2013-12-12 09:21:00,
2013-12-12 01:54:00,54.0,16.0,-100.00,NNW,329,13.0,18.0,22,0.00,,,0.00,0.000000,,2013-12-12 09:54:00,
2013-12-12 02:03:00,54.0,16.0,-100.00,NNW,329,13.0,18.0,22,0.00,,,0.00,0.000000,,2013-12-12 10:03:00,
2013-12-12 02:12:00,54.0,16.0,-100.00,NNW,329,13.0,18.0,22,0.00,,,0.00,0.000000,,2013-12-12 10:12:00,
2013-12-12 02:22:00,54.0,16.0,-100.00,NNW,329,13.0,18.0,22,0.00,,,0.00,0.000000,,2013-12-12 10:22:00,
2013-12-12 02:53:00,54.0,17.0,-100.00,NW,326,12.0,18.0,23,0.00,,,0.00,0.000000,,2013-12-12 10:53:00,
2013-12-12 03:02:00,54.0,17.0,-100.00,NW,326,12.0,18.0,23,0.00,,,0.00,0.000000,,2013-12-12 11:02:00,
2013-12-12 03:12:00,54.0,17.0,-100.00,NW,326,12.0,18.0,23,0.00,,,0.00,0.000000,,2013-12-12 11:12:00,
2013-12-12 03:22:00,54.0,17.0,-100.00,NW,326,12.0,18.0,23,0.00,,,0.00,0.000000,,2013-12-12 11:22:00,
2013-12-12 03:53:00,54.0,18.0,-100.00,NNW,335,15.0,22.0,24,0.00,,,0.00,0.000000,,2013-12-12 11:53:00,
2013-12-12 04:02:00,54.0,18.0,-100.00,NNW,335,15.0,22.0,24,0.00,,,0.00,0.000000,,2013-12-12 12:02:00,
2013-12-12 04:12:00,54.0,18.0,-100.00,NNW,335,15.0,22.0,24,0.00,,,0.00,0.000000,,2013-12-12 12:12:00,
2013-12-12 04:22:00,54.0,18.0,-100.00,NNW,335,15.0,22.0,24,0.00,,,0.00,0.000000,,2013-12-12 12:22:00,
2013-12-12 04:52:00,53.0,18.0,-100.00,NNW,336,9.0,17.0,25,0.00,,,0.00,0.000000,,2013-12-12 12:52:00,
2013-12-12 05:01:00,53.0,18.0,-100.00,NNW,336,9.0,17.0,25,0.00,,,0.00,0.000000,,2013-12-12 13:01:00,
2013-12-12 05:11:00,53.0,18.0,-100.00,NNW,336,9.0,17.0,25,0.00,,,0.00,0.000000,,2013-12-12 13:11:00,
2013-12-12 05:21:00,53.0,18.0,-100.00,NNW,336,9.0,17.0,25,0.00,,,0.00,0.000000,,2013-12-12 13:21:00,
2013-12-12 05:52:00,53.0,18.0,-100.00,NNW,330,12.0,19.0,25,0.00,,,0.00,0.000000,,2013-12-12 13:52:00,
2013-12-12 06:02:00,53.0,18.0,-100.00,NNW,330,12.0,19.0,25,0.00,,,0.00,0.000000,,2013-12-12 14:02:00,
2013-12-12 06:11:00,53.0,18.0,-100.00,NNW,330,12.0,19.0,25,0.00,,,0.00,0.000000,,2013-12-12 14:11:00,
2013-12-12 06:22:00,53.0,18.0,-100.00,NNW,330,12.0,19.0,25,0.00,,,0.00,0.000000,,2013-12-12 14:22:00,
2013-12-12 06:52:00,53.0,18.0,-100.00,NNW,327,12.0,18.0,25,0.00,,,0.00,0.000000,,2013-12-12 14:52:00,
2013-12-12 07:02:00,53.0,18.0,-100.00,NNW,327,12.0,18.0,25,0.00,,,0.00,0.000000,,2013-12-12 15:02:00,
2013-12-12 07:11:00,53.0,18.0,-100.00,NNW,327,12.0,18.0,25,0.00,,,0.00,0.000000,,2013-12-12 15:11:00,
2013-12-12 07:22:00,53.0,18.0,-100.00,NNW,327,12.0,18.0,25,0.00,,,0.00,0.000000,,2013-12-12 15:22:00,
2013-12-12 07:54:00,53.0,18.0,-100.00,NW,324,12.0,17.0,25,0.00,,,0.00,36.000000,,2013-12-12 15:54:00,
2013-12-12 08:03:00,53.0,18.0,-100.00,NW,324,12.0,17.0,25,0.00,,,0.00,36.000000,,2013-12-12 16:03:00,
2013-12-12 08:12:00,53.0,18.0,-100.00,NW,324,12.0,17.0,25,0.00,,,0.00,36.000000,,2013-12-12 16:12:00,
2013-12-12 08:23:00,53.0,18.0,-100.00,NW,324,12.0,17.0,25,0.00,,,0.00,36.000000,,2013-12-12 16:23:00,
2013-12-12 08:53:00,54.0,19.0,-100.00,NW,326,12.0,19.0,25,0.00,,,0.00,116.000000,,2013-12-12 16:53:00,
2013-12-12 09:02:00,54.0,19.0,-100.00,NW,326,12.0,19.0,25,0.00,,,0.00,116.000000,,2013-12-12 17:02:00,
2013-12-12 09:12:00,54.0,19.0,-100.00,NW,326,12.0,19.0,25,0.00,,,0.00,116.000000,,2013-12-12 17:12:00,
2013-12-12 09:22:00,54.0,19.0,-100.00,NW,326,12.0,19.0,25,0.00,,,0.00,116.000000,,2013-12-12 17:22:00,
2013-12-12 09:53:00,58.0,19.0,-100.00,NW,324,10.0,15.0,22,0.00,,,0.00,249.000000,,2013-12-12 17:53:00,
2013-12-12 10:02:00,58.0,19.0,-100.00,NW,324,10.0,15.0,22,0.00,,,0.00,249.000000,,2013-12-12 18:02:00,
2013-12-12 10:11:00,58.0,19.0,-100.00,NW,324,10.0,15.0,22,0.00,,,0.00,249.000000,,2013-12-12 18:11:00,
2013-12-12 10:21:00,58.0,19.0,-100.00,NW,324,10.0,15.0,22,0.00,,,0.00,249.000000,,2013-12-12 18:21:00,
2013-12-12 10:52:00,62.0,19.0,-100.00,NNW,327,12.0,20.0,19,0.00,,,0.00,599.000000,,2013-12-12 18:52:00,
2013-12-12 11:01:00,62.0,19.0,-100.00,NNW,327,12.0,20.0,19,0.00,,,0.00,599.000000,,2013-12-12 19:01:00,
2013-12-12 11:11:00,62.0,19.0,-100.00,NNW,327,12.0,20.0,19,0.00,,,0.00,599.000000,,2013-12-12 19:11:00,
2013-12-12 11:21:00,62.0,19.0,-100.00,NNW,327,12.0,20.0,19,0.00,,,0.00,599.000000,,2013-12-12 19:21:00,
2013-12-12 11:52:00,64.0,21.0,-100.00,NNW,345,12.0,21.0,19,0.00,,,0.00,452.000000,,2013-12-12 19:52:00,
2013-12-12 12:02:00,64.0,21.0,-100.00,NNW,345,12.0,21.0,19,0.00,,,0.00,452.000000,,2013-12-12 20:02:00,
2013-12-12 12:11:00,64.0,21.0,-100.00,NNW,345,12.0,21.0,19,0.00,,,0.00,452.000000,,2013-12-12 20:11:00,
2013-12-12 12:21:00,64.0,21.0,-100.00,NNW,345,12.0,21.0,19,0.00,,,0.00,452.000000,,2013-12-12 20:21:00,
2013-12-12 12:52:00,65.0,20.0,-100.00,NNW,344,12.0,20.0,18,0.00,,,0.00,685.000000,,2013-12-12 20:52:00,
2013-12-12 13:02:00,65.0,20.0,-100.00,NNW,344,12.0,20.0,18,0.00,,,0.00,685.000000,,2013-12-12 21:02:00,
2013-12-12 13:11:00,65.0,20.0,-100.00,NNW,344,12.0,20.0,18,0.00,,,0.00,685.000000,,2013-12-12 21:11:00,
2013-12-12 13:21:00,65.0,20.0,-100.00,NNW,344,12.0,20.0,18,0.00,,,0.00,685.000000,,2013-12-12 21:21:00,
2013-12-12 13:53:00,66.0,21.0,-100.00,NNW,334,11.0,22.0,18,0.00,,,0.00,613.000000,,2013-12-12 21:53:00,
2013-12-12 14:03:00,66.0,21.0,-100.00,NNW,334,11.0,22.0,18,0.00,,,0.00,613.000000,,2013-12-12 22:03:00,
2013-12-12 14:12:00,66.0,21.0,-100.00,NNW,334,11.0,22.0,18,0.00,,,0.00,613.000000,,2013-12-12 22:12:00,
2013-12-12 14:22:00,66.0,21.0,-100.00,NNW,334,11.0,22.0,18,0.00,,,0.00,613.000000,,2013-12-12 22:22:00,
2013-12-12 14:53:00,66.0,21.0,-100.00,NNW,340,12.0,20.0,18,0.00,,,0.00,381.000000,,2013-12-12 22:53:00,
2013-12-12 15:12:00,66.0,21.0,-100.00,NNW,340,12.0,20.0,18,0.00,,,0.00,381.000000,,2013-12-12 23:12:00,
2013-12-12 15:22:00,66.0,21.0,-100.00,NNW,340,12.0,20.0,18,0.00,,,0.00,381.000000,,2013-12-12 23:22:00,
2013-12-12 15:53:00,64.0,23.0,-100.00,NNW,337,8.0,16.0,21,0.00,,,0.00,166.000000,,2013-12-12 23:53:00,
2013-12-12 16:02:00,64.0,23.0,-100.00,NNW,337,8.0,16.0,21,0.00,,,0.00,166.000000,,2013-12-13 00:02:00,
2013-12-12 16:11:00,64.0,23.0,-100.00,NNW,337,8.0,16.0,21,0.00,,,0.00,166.000000,,2013-12-13 00:11:00,
2013-12-12 16:21:00,64.0,23.0,-100.00,NNW,337,8.0,16.0,21,0.00,,,0.00,166.000000,,2013-12-13 00:21:00,
2013-12-12 16:53:00,63.0,22.0,-100.00,WNW,302,7.0,13.0,21,0.00,,,-99.99,77.000000,,2013-12-13 00:53:00,
2013-12-12 17:02:00,63.0,22.0,-100.00,WNW,302,7.0,13.0,21,0.00,,,-99.99,77.000000,,2013-12-13 01:02:00,
2013-12-12 17:12:00,63.0,22.0,-100.00,WNW,302,7.0,13.0,21,0.00,,,-99.99,77.000000,,2013-12-13 01:12:00,
2013-12-12 17:21:00,63.0,22.0,-100.00,WNW,302,7.0,13.0,21,0.00,,,-99.99,77.000000,,2013-12-13 01:21:00,
2013-12-12 17:52:00,61.0,25.0,-100.00,NW,307,7.0,13.0,25,0.00,,,0.00,2.000000,,2013-12-13 01:52:00,
2013-12-12 18:01:00,61.0,25.0,-100.00,NW,307,7.0,13.0,25,0.00,,,0.00,2.000000,,2013-12-13 02:01:00,
2013-12-12 18:11:00,61.0,25.0,-100.00,NW,307,7.0,13.0,25,0.00,,,0.00,2.000000,,2013-12-13 02:11:00,
2013-12-12 18:22:00,61.0,25.0,-100.00,NW,307,7.0,13.0,25,0.00,,,0.00,2.000000,,2013-12-13 02:22:00,
2013-12-12 18:52:00,60.0,24.0,-100.00,NNW,327,7.0,13.0,25,0.00,,,0.00,0.000000,,2013-12-13 02:52:00,
2013-12-12 19:02:00,60.0,24.0,-100.00,NNW,327,7.0,13.0,25,0.00,,,0.00,0.000000,,2013-12-13 03:02:00,
2013-12-12 19:11:00,60.0,24.0,-100.00,NNW,327,7.0,13.0,25,0.00,,,0.00,0.000000,,2013-12-13 03:11:00,
2013-12-12 19:22:00,60.0,24.0,-100.00,NNW,327,7.0,13.0,25,0.00,,,0.00,0.000000,,2013-12-13 03:22:00,
2013-12-12 19:53:00,56.0,28.0,-100.00,NNW,328,2.0,10.0,34,0.00,,,0.00,0.000000,,2013-12-13 03:53:00,
2013-12-12 20:03:00,56.0,28.0,-100.00,NNW,328,2.0,10.0,34,0.00,,,0.00,0.000000,,2013-12-13 04:03:00,
2013-12-12 20:12:00,56.0,28.0,-100.00,NNW,328,2.0,10.0,34,0.00,,,0.00,0.000000,,2013-12-13 04:12:00,
2013-12-12 20:22:00,56.0,28.0,-100.00,NNW,328,2.0,10.0,34,0.00,,,0.00,0.000000,,2013-12-13 04:22:00,
2013-12-12 20:53:00,56.0,29.0,-100.00,NNW,337,6.0,9.0,36,0.00,,,0.00,0.000000,,2013-12-13 04:53:00,
2013-12-12 21:02:00,56.0,29.0,-100.00,NNW,337,6.0,9.0,36,0.00,,,0.00,0.000000,,2013-12-13 05:02:00,
2013-12-12 21:12:00,56.0,29.0,-100.00,NNW,337,6.0,9.0,36,0.00,,,0.00,0.000000,,2013-12-13 05:12:00,
2013-12-12 21:22:00,56.0,29.0,-100.00,NNW,337,6.0,9.0,36,0.00,,,0.00,0.000000,,2013-12-13 05:22:00,
2013-12-12 21:53:00,53.0,33.0,-100.00,NNE,25,2.0,6.0,47,0.00,,,0.00,0.000000,,2013-12-13 05:53:00,
2013-12-12 22:02:00,53.0,33.0,-100.00,NNE,25,2.0,6.0,47,0.00,,,0.00,0.000000,,2013-12-13 06:02:00,
2013-12-12 22:12:00,53.0,33.0,-100.00,NNE,25,2.0,6.0,47,0.00,,,0.00,0.000000,,2013-12-13 06:12:00,
2013-12-12 22:21:00,53.0,33.0,-100.00,NNE,25,2.0,6.0,47,0.00,,,0.00,0.000000,,2013-12-13 06:21:00,
2013-12-12 22:52:00,51.0,30.0,-100.00,NNW,332,1.0,3.0,45,0.00,,,0.00,0.000000,,2013-12-13 06:52:00,
2013-12-12 23:02:00,51.0,30.0,-100.00,NNW,332,1.0,3.0,45,0.00,,,0.00,0.000000,,2013-12-13 07:02:00,
2013-12-12 23:11:00,51.0,30.0,-100.00,NNW,332,1.0,3.0,45,0.00,,,0.00,0.000000,,2013-12-13 07:11:00,
2013-12-12 23:21:00,51.0,30.0,-100.00,NNW,332,1.0,3.0,45,0.00,,,0.00,0.000000,,2013-12-13 07:21:00,
2013-12-12 23:52:00,50.0,35.0,-100.00,NE,40,1.0,3.0,56,0.00,,,0.00,0.000000,,2013-12-13 07:52:00,